Comptche, California
Current Conditions -  °F | °C
As of 12:56 PM on Saturday 25 Oct 2014 (Local Time) from KUKI Reporting Station
Overcast Overcast  
Wind Chill: 61°   Ceiling: 2600
Heat Index: 61°   Visibility: 9mi
Dew Point: 55°   Wind: 5mph
Humidity: 81%   Direction: NA
Pressure: 29.99"   Gusts: NA
Location:  39.26°N, 123.59°W
Report Text: KUKI 251956Z AUTO VRB04KT 9SM BKN026 BKN034 OVC043 16/13 A2999 RMK AO2 RAE52 SLP150 P0008 T01610128
Loading
Personal Weather Stations






























Interactive Weather Map
Tropical Storm Tracking
New forecast layout! Learn more

10-Day Weather Forecast

Advertisements
Track Severe Weather on mobile